createdAt,value
2018-09-21T00:02:04.047Z,12.30
2018-09-21T00:04:36.039Z,12.30
2018-09-21T00:07:08.553Z,12.20
2018-09-21T00:09:40.720Z,12.20
2018-09-21T00:12:12.497Z,12.20
2018-09-21T00:14:44.663Z,12.10
2018-09-21T00:17:16.337Z,12.10
2018-09-21T00:19:48.464Z,12.00
2018-09-21T00:22:20.257Z,12.00
2018-09-21T00:24:52.981Z,12.10
2018-09-21T00:27:24.815Z,12.10
2018-09-21T00:29:56.834Z,12.10
2018-09-21T00:32:29.242Z,12.00
2018-09-21T00:35:01.582Z,12.10
2018-09-21T00:37:33.690Z,12.00
2018-09-21T00:40:05.772Z,12.10
2018-09-21T00:42:38.719Z,12.10
2018-09-21T00:45:10.831Z,12.10
2018-09-21T00:47:43.639Z,12.10
2018-09-21T00:50:15.969Z,12.00
2018-09-21T00:52:47.965Z,12.00
2018-09-21T00:57:49.878Z,12.00
2018-09-21T01:00:21.902Z,11.90
2018-09-21T01:02:53.900Z,12.00
2018-09-21T01:05:25.909Z,12.00
2018-09-21T01:07:58.244Z,11.90
2018-09-21T01:10:31.325Z,11.90
2018-09-21T01:13:03.580Z,11.90
2018-09-21T01:15:35.757Z,12.00
2018-09-21T01:18:07.611Z,11.90
2018-09-21T01:20:39.802Z,11.90
2018-09-21T01:23:11.764Z,11.90
2018-09-21T01:25:44.343Z,11.80
2018-09-21T01:28:17.475Z,11.80
2018-09-21T01:30:49.775Z,11.80
2018-09-21T01:33:22.032Z,11.80
2018-09-21T01:35:54.465Z,11.80
2018-09-21T01:38:26.513Z,11.70
2018-09-21T01:40:58.889Z,11.60
2018-09-21T01:43:30.962Z,11.60
2018-09-21T01:46:03.073Z,11.60
2018-09-21T01:48:34.988Z,11.70
2018-09-21T01:51:06.897Z,11.60
2018-09-21T01:53:38.683Z,11.60
2018-09-21T01:56:10.721Z,11.60
2018-09-21T01:58:43.017Z,11.60
2018-09-21T02:01:15.131Z,11.60
2018-09-21T02:03:47.011Z,11.60
2018-09-21T02:06:19.260Z,11.50
2018-09-21T02:08:51.718Z,11.50
2018-09-21T02:11:24.153Z,11.60
2018-09-21T02:13:56.336Z,11.50
2018-09-21T02:16:28.282Z,11.50
2018-09-21T02:19:00.512Z,11.50
2018-09-21T02:21:32.468Z,11.50
2018-09-21T02:24:04.146Z,11.50
2018-09-21T02:26:36.156Z,11.50
2018-09-21T02:29:08.171Z,11.40
2018-09-21T02:31:40.139Z,11.40
2018-09-21T02:34:13.093Z,11.50
2018-09-21T02:36:45.429Z,11.40
2018-09-21T02:39:17.433Z,11.40
2018-09-21T02:41:49.772Z,11.40
2018-09-21T02:44:22.248Z,11.40
2018-09-21T02:46:54.455Z,11.30
2018-09-21T02:49:26.924Z,11.30
2018-09-21T02:51:58.812Z,11.30
2018-09-21T02:54:31.499Z,11.30
2018-09-21T02:57:05.259Z,11.30
2018-09-21T02:59:38.953Z,11.20
2018-09-21T03:02:11.087Z,11.20
2018-09-21T03:04:47.811Z,11.20
2018-09-21T03:07:20.242Z,11.10
2018-09-21T03:09:52.351Z,11.10
2018-09-21T03:12:24.483Z,11.10
2018-09-21T03:14:58.230Z,11.10
2018-09-21T03:17:30.460Z,11.10
2018-09-21T03:20:03.131Z,11.00
2018-09-21T03:22:36.309Z,11.10
2018-09-21T03:25:09.535Z,11.10
2018-09-21T03:27:41.918Z,11.10
2018-09-21T03:30:13.970Z,11.00
2018-09-21T03:32:45.980Z,11.00
2018-09-21T03:35:18.943Z,11.00
2018-09-21T03:39:20.478Z,11.00
2018-09-21T03:41:52.637Z,11.00
2018-09-21T03:44:24.971Z,11.00
2018-09-21T03:46:56.907Z,11.10
2018-09-21T03:49:29.125Z,11.10
2018-09-21T03:52:01.428Z,11.00
2018-09-21T03:54:33.825Z,11.00
2018-09-21T03:57:06.054Z,11.00
2018-09-21T03:59:37.984Z,11.10
2018-09-21T04:02:09.870Z,11.10
2018-09-21T04:04:42.459Z,11.00
2018-09-21T04:07:14.653Z,11.00
2018-09-21T04:09:46.534Z,11.00
2018-09-21T04:12:18.622Z,11.10
2018-09-21T04:14:50.688Z,11.10
2018-09-21T04:17:22.658Z,11.20
2018-09-21T04:19:54.820Z,11.10
2018-09-21T04:22:26.842Z,11.10
2018-09-21T04:24:59.306Z,11.20
2018-09-21T04:27:31.656Z,11.20
2018-09-21T04:30:30.190Z,11.10
2018-09-21T04:33:05.470Z,11.20
2018-09-21T04:35:38.350Z,11.20
2018-09-21T04:38:10.510Z,11.10
2018-09-21T04:40:43.282Z,11.20
2018-09-21T04:43:15.538Z,11.20
2018-09-21T04:45:47.803Z,11.20
2018-09-21T04:48:33.433Z,11.20
2018-09-21T04:51:05.587Z,11.20
2018-09-21T04:53:37.543Z,11.20
2018-09-21T04:56:10.355Z,11.30
2018-09-21T04:58:42.637Z,11.30
2018-09-21T05:01:14.835Z,11.40
2018-09-21T05:03:47.238Z,11.50
2018-09-21T05:06:19.284Z,11.70
2018-09-21T05:08:51.596Z,11.80
2018-09-21T05:11:24.053Z,12.00
2018-09-21T05:13:59.619Z,12.20
2018-09-21T05:16:33.801Z,12.30
2018-09-21T05:19:06.753Z,12.50
2018-09-21T05:21:39.454Z,12.70
2018-09-21T05:24:12.126Z,12.90
2018-09-21T05:26:44.863Z,13.20
2018-09-21T05:29:17.227Z,13.30
2018-09-21T05:31:49.644Z,13.50
2018-09-21T05:34:21.797Z,13.70
2018-09-21T05:36:54.397Z,13.90
2018-09-21T05:39:27.283Z,14.10
2018-09-21T05:41:59.220Z,14.30
2018-09-21T05:44:31.678Z,14.50
2018-09-21T05:47:04.176Z,14.70
2018-09-21T05:49:36.521Z,14.80
2018-09-21T05:52:08.935Z,15.00
2018-09-21T05:54:41.026Z,15.20
2018-09-21T05:57:13.505Z,15.30
2018-09-21T05:59:45.903Z,15.50
2018-09-21T06:02:18.603Z,15.70
2018-09-21T06:04:55.161Z,15.90
2018-09-21T06:07:27.820Z,16.10
2018-09-21T06:09:59.917Z,16.10
2018-09-21T06:12:32.002Z,16.20
2018-09-21T06:15:05.215Z,16.30
2018-09-21T06:17:37.572Z,16.40
2018-09-21T06:20:12.846Z,16.40
2018-09-21T06:22:45.153Z,16.50
2018-09-21T06:25:14.191Z,16.60
2018-09-21T06:27:46.192Z,16.70
2018-09-21T06:30:18.510Z,16.80
2018-09-21T06:32:50.462Z,16.90
2018-09-21T06:35:22.616Z,16.90
2018-09-21T06:37:54.589Z,17.00
2018-09-21T06:40:26.737Z,17.10
2018-09-21T06:42:59.210Z,17.10
2018-09-21T06:45:31.612Z,17.20
2018-09-21T06:48:04.130Z,17.30
2018-09-21T06:50:36.198Z,17.40
2018-09-21T06:53:08.375Z,17.50
2018-09-21T06:55:40.322Z,17.70
2018-09-21T06:58:13.074Z,17.80
2018-09-21T07:00:45.040Z,18.00
2018-09-21T07:03:17.077Z,18.20
2018-09-21T07:05:49.001Z,18.30
2018-09-21T07:08:20.993Z,18.50
2018-09-21T07:10:54.470Z,18.50
2018-09-21T07:13:26.439Z,18.60
2018-09-21T07:15:58.677Z,18.60
2018-09-21T07:18:30.739Z,18.60
2018-09-21T07:21:02.813Z,18.60
2018-09-21T07:23:34.967Z,18.60
2018-09-21T07:26:07.280Z,18.80
2018-09-21T07:28:39.551Z,18.90
2018-09-21T07:31:12.485Z,18.90
2018-09-21T07:33:44.462Z,19.00
2018-09-21T07:36:16.477Z,19.10
2018-09-21T07:38:48.359Z,19.30
2018-09-21T07:41:21.254Z,19.40
2018-09-21T07:43:53.293Z,19.60
2018-09-21T07:46:25.658Z,19.80
2018-09-21T07:48:57.844Z,19.90
2018-09-21T07:51:29.836Z,20.00
2018-09-21T07:54:01.816Z,20.00
2018-09-21T07:56:33.648Z,20.10
2018-09-21T07:59:05.581Z,20.10
2018-09-21T08:01:37.462Z,20.20
2018-09-21T08:04:10.649Z,20.40
2018-09-21T08:06:42.517Z,20.60
2018-09-21T08:09:14.453Z,20.80
2018-09-21T08:11:46.515Z,20.90
2018-09-21T08:14:18.567Z,20.80
2018-09-21T08:16:50.567Z,20.80
2018-09-21T08:19:22.707Z,20.80
2018-09-21T08:21:54.684Z,20.70
2018-09-21T08:24:26.893Z,20.70
2018-09-21T08:27:00.627Z,20.80
2018-09-21T08:29:32.926Z,21.10
2018-09-21T08:32:05.489Z,21.30
2018-09-21T08:34:37.674Z,21.50
2018-09-21T08:37:10.284Z,21.70
2018-09-21T08:39:42.414Z,22.00
2018-09-21T08:42:14.976Z,22.20
2018-09-21T08:44:47.879Z,22.40
2018-09-21T08:47:20.347Z,22.50
2018-09-21T08:50:03.492Z,22.70
2018-09-21T08:52:38.695Z,22.70
2018-09-21T08:55:10.700Z,22.80
2018-09-21T08:57:43.221Z,22.90
2018-09-21T09:00:15.732Z,22.90
2018-09-21T09:02:51.343Z,22.90
2018-09-21T09:05:27.558Z,22.80
2018-09-21T09:08:00.886Z,22.80
2018-09-21T09:10:33.233Z,22.90
2018-09-21T09:13:05.683Z,23.00
2018-09-21T09:15:37.778Z,23.10
2018-09-21T09:18:09.789Z,23.20
2018-09-21T09:20:42.334Z,23.30
2018-09-21T09:23:14.709Z,23.30
2018-09-21T09:25:46.905Z,23.30
2018-09-21T09:28:19.384Z,23.50
2018-09-21T09:30:51.940Z,23.60
2018-09-21T09:33:24.305Z,23.70
2018-09-21T09:35:56.635Z,23.80
2018-09-21T09:38:28.765Z,23.70
2018-09-21T09:41:00.827Z,23.60
2018-09-21T09:43:32.962Z,23.40
2018-09-21T09:46:04.986Z,23.40
2018-09-21T09:48:37.624Z,23.30
2018-09-21T09:51:10.699Z,23.30
2018-09-21T09:53:42.722Z,23.30
2018-09-21T09:56:14.860Z,23.20
2018-09-21T09:58:47.376Z,23.40
2018-09-21T10:01:19.669Z,23.60
2018-09-21T10:03:52.010Z,23.70
2018-09-21T10:06:24.185Z,23.90
2018-09-21T10:08:56.245Z,23.90
2018-09-21T10:11:28.494Z,23.80
2018-09-21T10:14:00.371Z,23.70
2018-09-21T10:16:32.652Z,23.70
2018-09-21T10:19:04.786Z,23.70
2018-09-21T10:21:38.018Z,23.70
2018-09-21T10:24:10.132Z,23.80
2018-09-21T10:26:42.397Z,24.00
2018-09-21T10:29:14.685Z,24.20
2018-09-21T10:31:46.781Z,24.30
2018-09-21T10:34:19.986Z,24.30
2018-09-21T10:36:52.384Z,24.30
2018-09-21T10:39:24.699Z,24.20
2018-09-21T10:41:56.902Z,24.20
2018-09-21T10:44:29.369Z,24.60
2018-09-21T10:47:01.926Z,24.70
2018-09-21T10:49:34.102Z,24.70
2018-09-21T10:52:06.504Z,24.50
2018-09-21T10:54:38.660Z,24.50
2018-09-21T10:57:10.869Z,24.60
2018-09-21T10:59:43.017Z,24.60
2018-09-21T11:02:15.229Z,24.80
2018-09-21T11:04:47.272Z,24.80
2018-09-21T11:07:19.443Z,24.80
2018-09-21T11:09:51.763Z,24.70
2018-09-21T11:12:23.795Z,24.70
2018-09-21T11:14:55.970Z,24.60
2018-09-21T11:17:28.015Z,24.60
2018-09-21T11:20:00.174Z,24.70
2018-09-21T11:22:32.334Z,24.80
2018-09-21T11:25:04.574Z,24.90
2018-09-21T11:27:36.610Z,24.80
2018-09-21T11:30:08.912Z,24.80
2018-09-21T11:32:41.314Z,24.80
2018-09-21T11:35:13.417Z,24.90
2018-09-21T11:37:45.938Z,24.80
2018-09-21T11:40:18.130Z,24.80
2018-09-21T11:42:50.613Z,24.90
2018-09-21T11:45:22.636Z,24.90
2018-09-21T11:47:54.746Z,25.00
2018-09-21T11:50:27.137Z,24.80
2018-09-21T11:52:59.356Z,24.80
2018-09-21T11:55:31.949Z,24.80
2018-09-21T11:58:04.316Z,24.80
2018-09-21T12:00:36.466Z,24.80
2018-09-21T12:03:08.695Z,24.80
2018-09-21T12:05:41.037Z,24.90
2018-09-21T12:08:13.220Z,24.90
2018-09-21T12:10:45.252Z,24.80
2018-09-21T12:13:17.424Z,24.80
2018-09-21T12:15:49.365Z,24.90
2018-09-21T12:18:21.360Z,24.90
2018-09-21T12:20:53.898Z,24.90
2018-09-21T12:23:26.595Z,24.80
2018-09-21T12:25:58.469Z,24.80
2018-09-21T12:28:30.636Z,24.90
2018-09-21T12:31:02.547Z,25.00
2018-09-21T12:33:35.017Z,25.00
2018-09-21T12:36:09.118Z,25.00
2018-09-21T12:38:41.219Z,25.00
2018-09-21T12:41:13.628Z,25.10
2018-09-21T12:43:45.716Z,25.20
2018-09-21T12:46:27.291Z,25.20
2018-09-21T12:49:04.779Z,25.10
2018-09-21T12:51:37.136Z,25.20
2018-09-21T12:54:10.258Z,25.20
2018-09-21T12:56:42.372Z,25.30
2018-09-21T12:59:14.356Z,25.40
2018-09-21T13:01:46.670Z,25.40
2018-09-21T13:04:19.742Z,25.50
2018-09-21T13:06:51.865Z,25.50
2018-09-21T13:09:24.063Z,25.50
2018-09-21T13:11:56.131Z,25.40
2018-09-21T13:14:28.236Z,25.40
2018-09-21T13:17:00.839Z,25.40
2018-09-21T13:19:33.219Z,25.30
2018-09-21T13:22:06.174Z,25.40
2018-09-21T13:24:38.690Z,25.40
2018-09-21T13:27:11.020Z,25.50
2018-09-21T13:29:43.202Z,25.60
2018-09-21T13:32:15.180Z,25.70
2018-09-21T13:34:48.037Z,25.80
2018-09-21T13:37:20.429Z,25.70
2018-09-21T13:39:53.509Z,25.60
2018-09-21T13:42:25.947Z,25.60
2018-09-21T13:44:58.079Z,25.50
2018-09-21T13:47:30.081Z,25.40
2018-09-21T13:50:02.122Z,25.40
2018-09-21T13:52:34.512Z,25.40
2018-09-21T13:55:06.678Z,25.40
2018-09-21T13:57:38.957Z,25.40
2018-09-21T14:00:12.737Z,25.40
2018-09-21T14:02:44.926Z,25.30
2018-09-21T14:05:17.194Z,25.30
2018-09-21T14:07:49.228Z,25.30
2018-09-21T14:10:21.268Z,25.20
2018-09-21T14:12:53.110Z,25.20
2018-09-21T14:15:25.588Z,25.10
2018-09-21T14:17:58.138Z,25.00
2018-09-21T14:20:30.219Z,25.00
2018-09-21T14:23:02.319Z,25.00
2018-09-21T14:25:34.642Z,25.00
2018-09-21T14:28:07.099Z,25.00
2018-09-21T14:30:39.667Z,25.00
2018-09-21T14:33:11.895Z,25.20
2018-09-21T14:35:44.534Z,25.30
2018-09-21T14:38:16.750Z,25.30
2018-09-21T14:40:48.974Z,25.20
2018-09-21T14:43:21.371Z,25.10
2018-09-21T14:45:53.538Z,24.90
2018-09-21T14:48:25.789Z,24.80
2018-09-21T14:50:58.376Z,24.70
2018-09-21T14:56:32.140Z,24.50
2018-09-21T14:59:04.419Z,24.60
2018-09-21T15:01:38.902Z,24.60
2018-09-21T15:04:11.453Z,24.70
2018-09-21T15:06:43.700Z,24.80
2018-09-21T15:09:15.808Z,24.80
2018-09-21T15:11:48.150Z,24.80
2018-09-21T15:14:20.132Z,24.80
2018-09-21T15:16:52.302Z,24.80
2018-09-21T15:19:24.226Z,24.80
2018-09-21T15:21:56.761Z,24.70
2018-09-21T15:24:29.658Z,24.60
2018-09-21T15:27:01.682Z,24.60
2018-09-21T15:29:33.639Z,24.50
2018-09-21T15:32:05.874Z,24.50
2018-09-21T15:34:38.510Z,24.40
2018-09-21T15:37:11.336Z,24.40
2018-09-21T15:39:43.700Z,24.20
2018-09-21T15:42:15.758Z,24.20
2018-09-21T15:44:47.660Z,24.10
2018-09-21T15:47:19.659Z,23.90
2018-09-21T15:49:51.791Z,23.80
2018-09-21T15:52:23.818Z,23.70
2018-09-21T15:54:56.320Z,23.60
2018-09-21T15:57:28.161Z,23.40
2018-09-21T16:00:00.341Z,23.30
2018-09-21T16:02:33.454Z,23.20
2018-09-21T16:05:05.528Z,23.10
2018-09-21T16:07:37.647Z,23.00
2018-09-21T16:10:09.617Z,23.00
2018-09-21T16:12:41.790Z,22.90
2018-09-21T16:15:13.830Z,22.80
2018-09-21T16:17:46.075Z,22.70
2018-09-21T16:20:18.361Z,22.60
2018-09-21T16:22:50.668Z,22.40
2018-09-21T16:25:23.017Z,22.30
2018-09-21T16:27:55.457Z,22.20
2018-09-21T16:30:28.325Z,22.10
2018-09-21T16:33:00.875Z,22.00
2018-09-21T16:35:32.977Z,21.90
2018-09-21T16:38:06.041Z,21.80
2018-09-21T16:40:38.822Z,21.80
2018-09-21T16:43:11.345Z,21.80
2018-09-21T16:45:44.238Z,21.60
2018-09-21T16:48:16.228Z,21.60
2018-09-21T16:50:48.458Z,21.50
2018-09-21T16:53:20.560Z,21.40
2018-09-21T16:55:52.795Z,21.20
2018-09-21T16:58:25.003Z,21.10
2018-09-21T17:01:02.015Z,21.10
2018-09-21T17:03:34.658Z,21.00
2018-09-21T17:06:07.071Z,20.90
2018-09-21T17:08:39.679Z,20.80
2018-09-21T17:11:11.969Z,20.70
2018-09-21T17:13:43.698Z,20.70
2018-09-21T17:16:16.093Z,20.60
2018-09-21T17:18:48.551Z,20.50
2018-09-21T17:21:20.873Z,20.40
2018-09-21T17:23:53.119Z,20.30
2018-09-21T17:26:26.017Z,20.20
2018-09-21T17:28:58.585Z,20.10
2018-09-21T17:31:30.387Z,19.90
2018-09-21T17:34:02.977Z,19.80
2018-09-21T17:36:35.750Z,19.70
2018-09-21T17:39:12.867Z,19.60
2018-09-21T17:41:46.598Z,19.50
2018-09-21T17:44:19.066Z,19.50
2018-09-21T17:46:51.284Z,19.30
2018-09-21T17:49:25.377Z,19.20
2018-09-21T17:51:57.619Z,19.20
2018-09-21T17:54:30.324Z,19.10
2018-09-21T17:57:10.679Z,19.00
2018-09-21T17:59:42.787Z,18.80
2018-09-21T18:02:15.097Z,18.80
2018-09-21T18:04:48.426Z,18.70
2018-09-21T18:07:22.751Z,18.60
2018-09-21T18:09:55.344Z,18.60
2018-09-21T18:12:27.975Z,18.50
2018-09-21T18:15:00.425Z,18.40
2018-09-21T18:17:32.951Z,18.40
2018-09-21T18:20:05.517Z,18.30
2018-09-21T18:22:46.930Z,18.20
2018-09-21T18:25:19.016Z,18.20
2018-09-21T18:27:51.556Z,18.10
2018-09-21T18:30:25.806Z,18.00
2018-09-21T18:32:58.152Z,18.00
2018-09-21T18:35:31.183Z,17.90
2018-09-21T18:38:03.625Z,17.90
2018-09-21T18:40:36.477Z,17.90
2018-09-21T18:43:08.964Z,17.80
2018-09-21T18:45:41.631Z,17.80
2018-09-21T18:48:14.158Z,17.80
2018-09-21T18:50:46.823Z,17.80
2018-09-21T18:53:19.380Z,17.80
2018-09-21T18:55:51.879Z,17.70
2018-09-21T18:58:24.272Z,17.70
2018-09-21T19:00:56.262Z,17.70
2018-09-21T19:06:02.089Z,17.50
2018-09-21T19:08:34.853Z,17.50
2018-09-21T19:11:07.405Z,17.40
2018-09-21T19:13:40.032Z,17.40
2018-09-21T19:16:12.537Z,17.40
2018-09-21T19:18:44.602Z,17.40
2018-09-21T19:21:16.764Z,17.30
2018-09-21T19:23:49.172Z,17.20
2018-09-21T19:26:23.036Z,17.10
2018-09-21T19:28:55.369Z,17.10
2018-09-21T19:31:27.843Z,17.00
2018-09-21T19:34:00.176Z,16.90
2018-09-21T19:36:32.832Z,16.90
2018-09-21T19:39:07.996Z,16.80
2018-09-21T19:41:41.410Z,16.70
2018-09-21T19:44:13.995Z,16.60
2018-09-21T19:46:46.497Z,16.50
2018-09-21T19:49:18.624Z,16.40
2018-09-21T19:51:50.636Z,16.30
2018-09-21T19:54:23.145Z,16.20
2018-09-21T19:56:55.317Z,16.20
2018-09-21T19:59:27.567Z,16.10
2018-09-21T20:01:59.675Z,16.10
2018-09-21T20:04:31.837Z,16.00
2018-09-21T20:07:05.303Z,15.80
2018-09-21T20:09:37.292Z,15.80
2018-09-21T20:12:09.683Z,15.70
2018-09-21T20:14:42.294Z,15.50
2018-09-21T20:17:14.414Z,15.40
2018-09-21T20:19:46.615Z,15.30
2018-09-21T20:22:18.361Z,15.30
2018-09-21T20:24:51.581Z,15.20
2018-09-21T20:27:24.638Z,15.10
2018-09-21T20:30:00.781Z,15.00
2018-09-21T20:32:37.943Z,15.00
2018-09-21T20:35:09.903Z,14.90
2018-09-21T20:37:41.940Z,14.80
2018-09-21T20:40:13.843Z,14.70
2018-09-21T20:42:45.986Z,14.70
2018-09-21T20:45:18.169Z,14.60
2018-09-21T20:47:50.189Z,14.60
2018-09-21T20:50:22.195Z,14.50
2018-09-21T20:52:54.263Z,14.60
2018-09-21T20:55:26.579Z,14.50
2018-09-21T20:58:00.602Z,14.50
2018-09-21T21:00:32.847Z,14.50
2018-09-21T21:03:05.184Z,14.50
2018-09-21T21:05:37.477Z,14.40
2018-09-21T21:08:09.973Z,14.30
2018-09-21T21:10:42.994Z,14.20
2018-09-21T21:13:15.336Z,14.10
2018-09-21T21:15:47.843Z,14.10
2018-09-21T21:18:20.165Z,14.10
2018-09-21T21:20:53.366Z,14.20
2018-09-21T21:23:25.723Z,14.10
2018-09-21T21:25:57.748Z,14.20
2018-09-21T21:28:30.180Z,14.10
2018-09-21T21:31:02.375Z,14.10
2018-09-21T21:33:34.477Z,14.10
2018-09-21T21:36:06.297Z,14.10
2018-09-21T21:38:38.294Z,14.00
2018-09-21T21:41:10.542Z,14.00
2018-09-21T21:43:42.525Z,13.90
2018-09-21T21:46:14.595Z,13.90
2018-09-21T21:48:46.792Z,13.90
2018-09-21T21:51:18.735Z,13.80
2018-09-21T21:53:50.709Z,13.70
2018-09-21T21:56:22.754Z,13.70
2018-09-21T21:58:54.631Z,13.70
2018-09-21T22:01:31.770Z,13.60
2018-09-21T22:04:04.181Z,13.70
2018-09-21T22:06:36.341Z,13.60
2018-09-21T22:09:15.285Z,13.60
2018-09-21T22:12:00.581Z,13.60
2018-09-21T22:14:42.735Z,13.50
2018-09-21T22:17:22.663Z,13.60
2018-09-21T22:20:07.831Z,13.50
2018-09-21T22:22:52.591Z,13.50
2018-09-21T22:25:34.396Z,13.50
2018-09-21T22:28:13.181Z,13.50
2018-09-21T22:31:02.227Z,13.40
2018-09-21T22:33:40.111Z,13.40
2018-09-21T22:36:16.934Z,13.40
2018-09-21T22:39:00.505Z,13.30
2018-09-21T22:41:43.285Z,13.30
2018-09-21T22:44:26.202Z,13.20
2018-09-21T22:46:58.033Z,13.20
2018-09-21T22:52:09.018Z,13.20
2018-09-21T22:54:41.898Z,13.10
2018-09-21T22:57:14.744Z,13.10
2018-09-21T22:59:46.986Z,13.10
2018-09-21T23:02:19.063Z,13.00
2018-09-21T23:04:51.058Z,13.00
2018-09-21T23:07:23.513Z,12.90
2018-09-21T23:09:56.664Z,13.00
2018-09-21T23:12:29.004Z,13.00
2018-09-21T23:15:01.694Z,12.90
2018-09-21T23:17:34.584Z,12.90
2018-09-21T23:20:06.930Z,12.90
2018-09-21T23:22:38.965Z,12.90
2018-09-21T23:25:11.141Z,12.80
2018-09-21T23:27:43.344Z,12.80
2018-09-21T23:30:16.011Z,12.70
2018-09-21T23:32:47.770Z,12.70
2018-09-21T23:35:19.624Z,12.60
2018-09-21T23:37:51.691Z,12.60
2018-09-21T23:40:24.849Z,12.60
2018-09-21T23:42:57.659Z,12.60
2018-09-21T23:45:29.832Z,12.60
2018-09-21T23:48:01.726Z,12.60
2018-09-21T23:50:33.783Z,12.60
2018-09-21T23:53:05.623Z,12.60
2018-09-21T23:55:37.266Z,12.60
2018-09-21T23:58:09.204Z,12.60
